Flight Track Log - Related Links

Times and Time Zones

All times are in EDT time to prevent confusion due to time zone crossing. See the ASQ5941 flight status page for this flight to view local times or setup timezone preferences in your user account.

Time Position Orientation Groundspeed Altitude Reporting Facility
EDT Latitude Longitude Course Direction KTS MPH feet Rate Location/Type
Thu 02:59:12 PM 42.0167 -87.8333 80° East 187 215 3,200  Level Chicago TRACON
Thu 03:00:12 PM 42.0167 -87.7500 90° East 257 296 4,500 1,900 Climbing Chicago TRACON
Thu 03:01:00 PM 42.0423 -87.4520 83° East  Level FlightAware Approximate
Thu 03:01:12 PM 42.0167 -87.6500 90° East 260 299 7,000  Level Chicago TRACON
Thu 03:01:42 PM 42.0122 -87.6042 97° East 259 298 8,100 2,087 Climbing Chicago Center
Thu 03:02:00 PM 42.0606 -87.2984 78° East  Level FlightAware Approximate
Thu 03:02:44 PM 42.0308 -87.5078 75° East 267 307 10,200  Level Chicago Center
Thu 03:03:00 PM 42.0840 -87.1458 77° East  Level FlightAware Approximate
Thu 03:03:46 PM 42.0494 -87.4050 76° East 279 321 12,200  Level Chicago Center
Thu 03:04:00 PM 42.1005 -86.9964 80° East  Level FlightAware Approximate
Thu 03:04:48 PM 42.0694 -87.2983 76° East 292 336 14,100  Level Chicago Center
Thu 03:05:50 PM 42.0908 -87.1847 76° East 308 354 15,200 919 Climbing Chicago Center
Thu 03:06:52 PM 42.1161 -87.0314 77° East 346 398 16,000 871 Climbing Chicago Center
Thu 03:07:54 PM 42.1183 -86.8886 89° East 374 430 17,000 919 Climbing Chicago Center
Thu 03:08:56 PM 42.1231 -86.7469 87° East 379 436 17,900 1,065 Climbing Chicago Center
Thu 03:09:58 PM 42.1283 -86.5917 87° East 386 444 19,200 1,210 Climbing Chicago Center
Thu 03:11:00 PM 42.1344 -86.4450 87° East 391 450 20,400 1,113 Climbing Chicago Center
Thu 03:12:02 PM 42.1378 -86.2989 88° East 391 450 21,500 1,016 Climbing Chicago Center
Thu 03:13:04 PM 42.1436 -86.1467 87° East 404 465 22,500 1,056 Climbing Chicago Center
Thu 03:14:07 PM 42.1433 -85.9944 90° East 406 467 23,700 1,200 Climbing Chicago Center
Thu 03:15:09 PM 42.1417 -85.8261 91° East 405 466 25,000 1,210 Climbing Chicago Center
Thu 03:16:11 PM 42.1403 -85.6756 91° East 404 465 26,200 1,161 Climbing Chicago Center
Thu 03:17:13 PM 42.1389 -85.5278 91° East 398 458 27,400 1,161 Climbing Chicago Center
Thu 03:18:15 PM 42.1369 -85.3808 91° East 393 452 28,600 1,161 Climbing Chicago Center
Thu 03:19:17 PM 42.1364 -85.2022 90° East 399 459 29,800 1,065 Climbing Chicago Center
Thu 03:20:19 PM 42.1344 -85.0517 91° East 402 463 30,800 581 Climbing Chicago Center
Thu 03:21:21 PM 42.1306 -84.8978 92° East 411 473 31,000 97 Climbing Chicago Center
Thu 03:22:23 PM 42.1278 -84.7331 91° East 437 503 31,000  Level Chicago Center
Thu 03:23:25 PM 42.1247 -84.5578 91° East 463 533 31,000  Level Chicago Center
Thu 03:24:27 PM 42.1369 -84.3483 85° East 469 540 31,000  Level Chicago Center
Thu 03:25:24 PM 42.1514 -84.1881 83° East 459 528 31,000  Level Cleveland Center
Thu 03:26:24 PM 42.1736 -84.0100 80° East 464 534 31,000  Level Cleveland Center
Thu 03:27:24 PM 42.1911 -83.8369 82° East 469 540 31,000  Level Cleveland Center
Thu 03:28:24 PM 42.2086 -83.6556 83° East 474 545 31,000  Level Cleveland Center
Thu 03:29:24 PM 42.2256 -83.4883 82° East 482 555 31,000  Level Cleveland Center
Thu 03:30:24 PM 42.2300 -83.3061 88° East 487 560 31,000  Level Cleveland Center
Thu 03:31:24 PM 42.2300 -83.1211 90° East 487 560 31,000  Level Cleveland Center
Thu 03:32:24 PM 42.2319 -82.9361 89° East 487 560 31,000  Level Cleveland Center
Thu 03:33:24 PM 42.2311 -82.7536 90° East 487 560 31,000  Level Cleveland Center
Thu 03:34:24 PM 42.2325 -82.5714 89° East 493 567 31,000  Level Cleveland Center
Thu 03:35:24 PM 42.2272 -82.3833 92° East 488 562 31,000  Level Cleveland Center
Thu 03:36:24 PM 42.2175 -82.2036 94° East 488 562 31,000  Level Cleveland Center
Thu 03:37:24 PM 42.2033 -82.0042 95° East 483 556 31,000  Level Cleveland Center
Thu 03:38:24 PM 42.1931 -81.8219 94° East 483 556 31,000  Level Cleveland Center
Thu 03:39:24 PM 42.1800 -81.6619 96° East 483 556 31,000  Level Cleveland Center
Thu 03:40:24 PM 42.1692 -81.4769 94° East 483 556 31,000  Level Cleveland Center
Thu 03:41:24 PM 42.1558 -81.2944 96° East 483 556 31,000  Level Cleveland Center
Thu 03:42:24 PM 42.1442 -81.1125 95° East 483 556 31,000  Level Cleveland Center
Thu 03:43:24 PM 42.1303 -80.9303 96° East 483 556 31,000  Level Cleveland Center
Thu 03:44:24 PM 42.1183 -80.7286 94° East 488 562 31,000  Level Cleveland Center
Thu 03:45:24 PM 42.1017 -80.5467 97° East 488 562 31,000  Level Cleveland Center
Thu 03:46:24 PM 42.0889 -80.3678 95° East 483 556 31,000  Level Cleveland Center
Thu 03:47:24 PM 42.0761 -80.1831 95° East 483 556 31,000  Level Cleveland Center
Thu 03:48:24 PM 42.0606 -79.9958 96° East 489 563 31,000  Level Cleveland Center
Thu 03:49:24 PM 42.0472 -79.8367 96° East 489 563 31,000  Level Cleveland Center
Thu 03:50:24 PM 42.0333 -79.6522 96° East 484 557 31,000  Level Cleveland Center
Thu 03:51:24 PM 42.0150 -79.4708 98° East 484 557 31,000  Level Cleveland Center
Thu 03:52:24 PM 41.9986 -79.2839 97° East 484 557 31,000 -200 Level Cleveland Center
Thu 03:53:24 PM 41.9839 -79.1000 96° East 484 557 30,600 -950 Descending Cleveland Center
Thu 03:54:24 PM 41.9667 -78.9158 97° East 484 557 29,100 -1,250 Descending Cleveland Center
Thu 03:55:24 PM 41.9494 -78.7350 97° East 491 565 28,100 -900 Descending Cleveland Center
Thu 03:56:24 PM 41.9314 -78.5456 97° East 497 572 27,300 -1,100 Descending Cleveland Center
Thu 03:57:24 PM 41.9156 -78.3592 96° East 497 572 25,900 -1,400 Descending Cleveland Center
Thu 03:58:24 PM 41.8972 -78.1783 98° East 498 573 24,500 -946 Descending Cleveland Center
Thu 04:00:28 PM 41.8564 -77.8136 98° East 471 542 23,000 -486 Descending New York Center
Thu 04:01:29 PM 41.8158 -77.6481 108° East 465 535 23,000  Level New York Center
Thu 04:02:27 PM 41.7736 -77.4767 108° East 470 541 23,000  Level New York Center
Thu 04:03:27 PM 41.7439 -77.3014 103° East 470 541 23,000  Level New York Center
Thu 04:04:27 PM 41.7175 -77.1319 102° East 470 541 23,000 -893 Level New York Center
Thu 04:05:28 PM 41.6892 -76.9597 102° East 470 541 21,200 -2,410 Descending New York Center
Thu 04:06:29 PM 41.6642 -76.7964 102° East 459 528 18,100 -3,025 Descending New York Center
Thu 04:07:29 PM 41.6367 -76.6411 103° East 439 505 15,100 -3,282 Descending New York Center
Thu 04:08:26 PM 41.6092 -76.4778 103° East 407 468 11,700 -2,542 Descending New York Center
Thu 04:09:27 PM 41.5883 -76.3458 102° East 379 436 10,100 -1,131 Descending New York Center
Thu 04:10:28 PM 41.5706 -76.2389 102° East 329 379 9,400 -650 Descending New York Center
Thu 04:11:27 PM 41.5519 -76.1458 105° East 290 334 8,800 -1,091 Descending New York Center
Thu 04:12:29 PM 41.5100 -76.0567 122° Southeast 275 316 7,200 -1,525 Descending New York Center
Thu 04:13:29 PM 41.4617 -75.9697 127° Southeast 275 316 5,700 -1,128 Descending New York Center
Thu 04:14:26 PM 41.3903 -75.9394 162° South 260 299 5,000 -610 Descending New York Center
Thu 04:15:27 PM 41.3161 -75.9169 167° South 265 305 4,500 -492 Descending New York Center
Thu 04:16:28 PM 41.2658 -75.8772 149° Southeast 265 305 4,000 -492 Descending New York Center

Login

Don't have an account? Register now (free) for customized features, flight alerts, and more!